sensor_id;sensor_type;location;lat;lon;timestamp;P1;P2;P0
68713;PMS7003;55690;51.566;19.198;2022-08-19T00:03:02;22;17;14
68713;PMS7003;55690;51.566;19.198;2022-08-19T00:07:08;20;16;16
68713;PMS7003;55690;51.566;19.198;2022-08-19T00:11:14;32;21;14
68713;PMS7003;55690;51.566;19.198;2022-08-19T00:15:20;21;15;12
68713;PMS7003;55690;51.566;19.198;2022-08-19T00:19:26;27;14;12
68713;PMS7003;55690;51.566;19.198;2022-08-19T00:23:32;24;21;15
68713;PMS7003;55690;51.566;19.198;2022-08-19T00:27:39;22;17;13
68713;PMS7003;55690;51.566;19.198;2022-08-19T00:31:45;32;20;16
68713;PMS7003;55690;51.566;19.198;2022-08-19T00:35:51;21;20;14
68713;PMS7003;55690;51.566;19.198;2022-08-19T00:39:57;21;16;13
68713;PMS7003;55690;51.566;19.198;2022-08-19T00:44:05;26;20;15
68713;PMS7003;55690;51.566;19.198;2022-08-19T00:48:14;18;16;11
68713;PMS7003;55690;51.566;19.198;2022-08-19T00:52:24;17;17;14
68713;PMS7003;55690;51.566;19.198;2022-08-19T00:56:31;23;20;13
68713;PMS7003;55690;51.566;19.198;2022-08-19T01:00:35;22;20;15
68713;PMS7003;55690;51.566;19.198;2022-08-19T01:04:38;25;19;14
68713;PMS7003;55690;51.566;19.198;2022-08-19T01:08:40;16;16;12
68713;PMS7003;55690;51.566;19.198;2022-08-19T01:12:47;21;21;16
68713;PMS7003;55690;51.566;19.198;2022-08-19T01:16:53;26;20;17
68713;PMS7003;55690;51.566;19.198;2022-08-19T01:21:00;17;17;12
68713;PMS7003;55690;51.566;19.198;2022-08-19T01:25:06;25;19;16
68713;PMS7003;55690;51.566;19.198;2022-08-19T01:29:11;24;21;15
68713;PMS7003;55690;51.566;19.198;2022-08-19T01:33:17;16;14;12
68713;PMS7003;55690;51.566;19.198;2022-08-19T01:37:23;22;19;16
68713;PMS7003;55690;51.566;19.198;2022-08-19T01:41:29;23;18;15
68713;PMS7003;55690;51.566;19.198;2022-08-19T01:45:36;21;21;17
68713;PMS7003;55690;51.566;19.198;2022-08-19T01:49:42;26;21;15
68713;PMS7003;55690;51.566;19.198;2022-08-19T01:53:48;20;15;12
68713;PMS7003;55690;51.566;19.198;2022-08-19T01:57:55;21;16;14
68713;PMS7003;55690;51.566;19.198;2022-08-19T02:02:00;21;21;15
68713;PMS7003;55690;51.566;19.198;2022-08-19T02:06:07;16;15;12
68713;PMS7003;55690;51.566;19.198;2022-08-19T02:10:15;18;18;14
68713;PMS7003;55690;51.566;19.198;2022-08-19T02:14:20;19;16;13
68713;PMS7003;55690;51.566;19.198;2022-08-19T02:18:25;26;16;11
68713;PMS7003;55690;51.566;19.198;2022-08-19T02:22:31;26;21;16
68713;PMS7003;55690;51.566;19.198;2022-08-19T02:26:37;18;18;15
68713;PMS7003;55690;51.566;19.198;2022-08-19T02:30:43;17;17;14
68713;PMS7003;55690;51.566;19.198;2022-08-19T02:34:49;17;17;14
68713;PMS7003;55690;51.566;19.198;2022-08-19T02:38:56;21;18;16
68713;PMS7003;55690;51.566;19.198;2022-08-19T02:43:02;23;23;19
68713;PMS7003;55690;51.566;19.198;2022-08-19T02:47:09;19;16;14
68713;PMS7003;55690;51.566;19.198;2022-08-19T02:51:16;23;23;18
68713;PMS7003;55690;51.566;19.198;2022-08-19T02:55:22;22;19;14
68713;PMS7003;55690;51.566;19.198;2022-08-19T02:59:29;14;14;12
68713;PMS7003;55690;51.566;19.198;2022-08-19T03:03:33;16;16;12
68713;PMS7003;55690;51.566;19.198;2022-08-19T03:07:39;28;18;13
68713;PMS7003;55690;51.566;19.198;2022-08-19T03:11:45;23;16;12
68713;PMS7003;55690;51.566;19.198;2022-08-19T03:15:51;18;18;15
68713;PMS7003;55690;51.566;19.198;2022-08-19T03:19:57;22;18;16
68713;PMS7003;55690;51.566;19.198;2022-08-19T03:24:05;13;13;10
68713;PMS7003;55690;51.566;19.198;2022-08-19T03:28:10;19;18;17
68713;PMS7003;55690;51.566;19.198;2022-08-19T03:32:16;18;18;15
68713;PMS7003;55690;51.566;19.198;2022-08-19T03:36:23;24;16;12
68713;PMS7003;55690;51.566;19.198;2022-08-19T03:40:28;23;21;15
68713;PMS7003;55690;51.566;19.198;2022-08-19T03:44:34;15;11;9
68713;PMS7003;55690;51.566;19.198;2022-08-19T03:48:41;29;22;16
68713;PMS7003;55690;51.566;19.198;2022-08-19T03:52:50;16;12;9
68713;PMS7003;55690;51.566;19.198;2022-08-19T03:56:54;27;18;15
68713;PMS7003;55690;51.566;19.198;2022-08-19T04:00:59;22;22;18
68713;PMS7003;55690;51.566;19.198;2022-08-19T04:05:05;19;17;14
68713;PMS7003;55690;51.566;19.198;2022-08-19T04:09:11;24;19;14
68713;PMS7003;55690;51.566;19.198;2022-08-19T04:13:18;23;21;16
68713;PMS7003;55690;51.566;19.198;2022-08-19T04:17:24;24;19;17
68713;PMS7003;55690;51.566;19.198;2022-08-19T04:21:30;20;17;14
68713;PMS7003;55690;51.566;19.198;2022-08-19T04:25:37;27;24;18
68713;PMS7003;55690;51.566;19.198;2022-08-19T04:29:43;26;18;14
68713;PMS7003;55690;51.566;19.198;2022-08-19T04:33:48;26;19;13
68713;PMS7003;55690;51.566;19.198;2022-08-19T04:37:54;25;21;16
68713;PMS7003;55690;51.566;19.198;2022-08-19T04:42:00;19;18;16
68713;PMS7003;55690;51.566;19.198;2022-08-19T04:46:14;20;15;13
68713;PMS7003;55690;51.566;19.198;2022-08-19T04:50:17;21;19;15
68713;PMS7003;55690;51.566;19.198;2022-08-19T04:54:19;18;18;14
68713;PMS7003;55690;51.566;19.198;2022-08-19T04:58:26;28;20;16
68713;PMS7003;55690;51.566;19.198;2022-08-19T05:02:31;18;18;16
68713;PMS7003;55690;51.566;19.198;2022-08-19T05:06:38;26;22;16
68713;PMS7003;55690;51.566;19.198;2022-08-19T05:10:44;18;18;15
68713;PMS7003;55690;51.566;19.198;2022-08-19T05:14:50;23;21;17
68713;PMS7003;55690;51.566;19.198;2022-08-19T05:18:56;23;23;18
68713;PMS7003;55690;51.566;19.198;2022-08-19T05:23:10;20;18;14
68713;PMS7003;55690;51.566;19.198;2022-08-19T05:27:17;17;17;14
68713;PMS7003;55690;51.566;19.198;2022-08-19T05:31:19;19;19;17
68713;PMS7003;55690;51.566;19.198;2022-08-19T05:35:21;21;14;9
68713;PMS7003;55690;51.566;19.198;2022-08-19T05:39:28;22;18;15
68713;PMS7003;55690;51.566;19.198;2022-08-19T05:43:34;17;14;11
68713;PMS7003;55690;51.566;19.198;2022-08-19T05:47:41;23;17;13
68713;PMS7003;55690;51.566;19.198;2022-08-19T05:51:46;18;18;14
68713;PMS7003;55690;51.566;19.198;2022-08-19T05:55:52;24;16;14
68713;PMS7003;55690;51.566;19.198;2022-08-19T05:59:58;22;19;15
68713;PMS7003;55690;51.566;19.198;2022-08-19T06:04:04;12;12;10
68713;PMS7003;55690;51.566;19.198;2022-08-19T06:08:10;16;16;12
68713;PMS7003;55690;51.566;19.198;2022-08-19T06:12:20;25;23;15
68713;PMS7003;55690;51.566;19.198;2022-08-19T06:16:31;26;19;16
68713;PMS7003;55690;51.566;19.198;2022-08-19T06:20:35;17;16;13
68713;PMS7003;55690;51.566;19.198;2022-08-19T06:24:37;14;12;8
68713;PMS7003;55690;51.566;19.198;2022-08-19T06:28:41;24;21;16
68713;PMS7003;55690;51.566;19.198;2022-08-19T06:32:47;16;16;13
68713;PMS7003;55690;51.566;19.198;2022-08-19T06:36:54;29;18;15
68713;PMS7003;55690;51.566;19.198;2022-08-19T06:41:03;17;16;12
68713;PMS7003;55690;51.566;19.198;2022-08-19T06:45:06;20;20;16
68713;PMS7003;55690;51.566;19.198;2022-08-19T06:49:12;23;18;14
68713;PMS7003;55690;51.566;19.198;2022-08-19T06:53:18;18;18;15
68713;PMS7003;55690;51.566;19.198;2022-08-19T06:57:24;25;25;20
68713;PMS7003;55690;51.566;19.198;2022-08-19T07:01:33;28;22;17
68713;PMS7003;55690;51.566;19.198;2022-08-19T07:05:42;17;17;15
68713;PMS7003;55690;51.566;19.198;2022-08-19T07:09:44;23;20;17
68713;PMS7003;55690;51.566;19.198;2022-08-19T07:13:49;17;15;13
68713;PMS7003;55690;51.566;19.198;2022-08-19T07:17:55;21;21;16
68713;PMS7003;55690;51.566;19.198;2022-08-19T07:22:03;24;24;15
68713;PMS7003;55690;51.566;19.198;2022-08-19T07:26:08;23;22;18
68713;PMS7003;55690;51.566;19.198;2022-08-19T07:30:16;25;22;16
68713;PMS7003;55690;51.566;19.198;2022-08-19T07:34:20;31;23;19
68713;PMS7003;55690;51.566;19.198;2022-08-19T07:38:26;17;17;14
68713;PMS7003;55690;51.566;19.198;2022-08-19T07:42:32;23;23;18
68713;PMS7003;55690;51.566;19.198;2022-08-19T07:46:40;20;19;16
68713;PMS7003;55690;51.566;19.198;2022-08-19T07:50:45;19;19;16
68713;PMS7003;55690;51.566;19.198;2022-08-19T07:54:50;17;17;13
68713;PMS7003;55690;51.566;19.198;2022-08-19T07:58:57;23;18;11
68713;PMS7003;55690;51.566;19.198;2022-08-19T08:03:03;20;18;13
68713;PMS7003;55690;51.566;19.198;2022-08-19T08:07:09;22;21;16
68713;PMS7003;55690;51.566;19.198;2022-08-19T08:11:22;20;20;16
68713;PMS7003;55690;51.566;19.198;2022-08-19T08:15:24;21;18;17
68713;PMS7003;55690;51.566;19.198;2022-08-19T08:19:28;21;16;13
68713;PMS7003;55690;51.566;19.198;2022-08-19T08:23:33;25;20;17
68713;PMS7003;55690;51.566;19.198;2022-08-19T08:27:41;22;21;16
68713;PMS7003;55690;51.566;19.198;2022-08-19T08:31:46;21;20;16
68713;PMS7003;55690;51.566;19.198;2022-08-19T08:35:52;22;22;18
68713;PMS7003;55690;51.566;19.198;2022-08-19T08:40:02;25;19;15
68713;PMS7003;55690;51.566;19.198;2022-08-19T08:44:20;20;19;14
68713;PMS7003;55690;51.566;19.198;2022-08-19T08:48:32;22;21;17
68713;PMS7003;55690;51.566;19.198;2022-08-19T08:52:35;20;18;16
68713;PMS7003;55690;51.566;19.198;2022-08-19T08:56:43;22;22;17
68713;PMS7003;55690;51.566;19.198;2022-08-19T09:00:47;20;18;15
68713;PMS7003;55690;51.566;19.198;2022-08-19T09:04:50;15;15;14
68713;PMS7003;55690;51.566;19.198;2022-08-19T09:17:12;19;19;15
68713;PMS7003;55690;51.566;19.198;2022-08-19T09:21:15;18;18;13
68713;PMS7003;55690;51.566;19.198;2022-08-19T09:25:18;20;17;15
68713;PMS7003;55690;51.566;19.198;2022-08-19T09:29:23;23;21;17
68713;PMS7003;55690;51.566;19.198;2022-08-19T09:33:25;18;17;14
68713;PMS7003;55690;51.566;19.198;2022-08-19T09:37:27;23;21;16
68713;PMS7003;55690;51.566;19.198;2022-08-19T09:41:31;20;20;15
68713;PMS7003;55690;51.566;19.198;2022-08-19T09:45:37;27;22;16
68713;PMS7003;55690;51.566;19.198;2022-08-19T09:49:43;24;20;17
68713;PMS7003;55690;51.566;19.198;2022-08-19T09:53:50;18;14;11
68713;PMS7003;55690;51.566;19.198;2022-08-19T09:57:55;15;15;13
68713;PMS7003;55690;51.566;19.198;2022-08-19T10:02:01;17;14;13
68713;PMS7003;55690;51.566;19.198;2022-08-19T10:06:07;20;20;16
68713;PMS7003;55690;51.566;19.198;2022-08-19T10:10:13;21;20;16
68713;PMS7003;55690;51.566;19.198;2022-08-19T10:14:20;16;16;13
68713;PMS7003;55690;51.566;19.198;2022-08-19T10:18:26;16;12;10
68713;PMS7003;55690;51.566;19.198;2022-08-19T10:22:32;11;11;10
68713;PMS7003;55690;51.566;19.198;2022-08-19T10:26:39;14;9;8
68713;PMS7003;55690;51.566;19.198;2022-08-19T10:30:48;14;10;8
68713;PMS7003;55690;51.566;19.198;2022-08-19T10:34:51;15;15;13
68713;PMS7003;55690;51.566;19.198;2022-08-19T10:38:57;14;13;10
68713;PMS7003;55690;51.566;19.198;2022-08-19T10:43:03;8;8;6
68713;PMS7003;55690;51.566;19.198;2022-08-19T10:47:09;14;9;8
68713;PMS7003;55690;51.566;19.198;2022-08-19T10:51:15;10;10;9
68713;PMS7003;55690;51.566;19.198;2022-08-19T10:55:29;14;14;12
68713;PMS7003;55690;51.566;19.198;2022-08-19T10:59:42;13;11;9
68713;PMS7003;55690;51.566;19.198;2022-08-19T11:03:43;12;11;9
68713;PMS7003;55690;51.566;19.198;2022-08-19T11:07:46;15;15;12
68713;PMS7003;55690;51.566;19.198;2022-08-19T11:11:50;12;11;10
68713;PMS7003;55690;51.566;19.198;2022-08-19T11:16:00;10;10;9
68713;PMS7003;55690;51.566;19.198;2022-08-19T11:20:03;10;10;9
68713;PMS7003;55690;51.566;19.198;2022-08-19T11:24:08;11;10;7
68713;PMS7003;55690;51.566;19.198;2022-08-19T11:28:13;12;5;5
68713;PMS7003;55690;51.566;19.198;2022-08-19T11:32:17;18;10;6
68713;PMS7003;55690;51.566;19.198;2022-08-19T11:36:23;10;10;9
68713;PMS7003;55690;51.566;19.198;2022-08-19T11:40:29;10;10;9
68713;PMS7003;55690;51.566;19.198;2022-08-19T11:44:35;18;15;11
68713;PMS7003;55690;51.566;19.198;2022-08-19T11:48:41;12;11;10
68713;PMS7003;55690;51.566;19.198;2022-08-19T11:52:48;10;10;8
68713;PMS7003;55690;51.566;19.198;2022-08-19T11:56:53;14;10;8
68713;PMS7003;55690;51.566;19.198;2022-08-19T12:01:00;6;6;6
68713;PMS7003;55690;51.566;19.198;2022-08-19T12:05:06;8;8;7
68713;PMS7003;55690;51.566;19.198;2022-08-19T12:09:12;11;10;9
68713;PMS7003;55690;51.566;19.198;2022-08-19T12:13:18;9;9;8
68713;PMS7003;55690;51.566;19.198;2022-08-19T12:17:25;15;15;14
68713;PMS7003;55690;51.566;19.198;2022-08-19T12:21:31;12;12;11
68713;PMS7003;55690;51.566;19.198;2022-08-19T12:25:37;13;13;12
68713;PMS7003;55690;51.566;19.198;2022-08-19T12:29:52;11;9;8
68713;PMS7003;55690;51.566;19.198;2022-08-19T12:33:53;10;10;9
68713;PMS7003;55690;51.566;19.198;2022-08-19T12:37:55;10;10;8
68713;PMS7003;55690;51.566;19.198;2022-08-19T12:42:01;10;10;9
68713;PMS7003;55690;51.566;19.198;2022-08-19T12:46:07;15;15;10
68713;PMS7003;55690;51.566;19.198;2022-08-19T12:50:13;16;11;9
68713;PMS7003;55690;51.566;19.198;2022-08-19T12:54:20;18;13;11
68713;PMS7003;55690;51.566;19.198;2022-08-19T12:58:26;9;9;9
68713;PMS7003;55690;51.566;19.198;2022-08-19T13:02:32;14;7;7
68713;PMS7003;55690;51.566;19.198;2022-08-19T13:06:38;10;9;8
68713;PMS7003;55690;51.566;19.198;2022-08-19T13:10:44;11;11;10
68713;PMS7003;55690;51.566;19.198;2022-08-19T13:14:50;10;6;6
68713;PMS7003;55690;51.566;19.198;2022-08-19T13:18:56;8;8;7
68713;PMS7003;55690;51.566;19.198;2022-08-19T13:23:03;12;11;10
68713;PMS7003;55690;51.566;19.198;2022-08-19T13:27:09;7;7;6
68713;PMS7003;55690;51.566;19.198;2022-08-19T13:31:18;22;18;15
68713;PMS7003;55690;51.566;19.198;2022-08-19T13:35:33;13;12;10
68713;PMS7003;55690;51.566;19.198;2022-08-19T13:39:35;12;7;6
68713;PMS7003;55690;51.566;19.198;2022-08-19T13:43:37;11;9;8
68713;PMS7003;55690;51.566;19.198;2022-08-19T13:47:39;15;14;11
68713;PMS7003;55690;51.566;19.198;2022-08-19T13:51:46;16;13;10
68713;PMS7003;55690;51.566;19.198;2022-08-19T13:55:52;18;11;9
68713;PMS7003;55690;51.566;19.198;2022-08-19T13:59:58;13;11;9
68713;PMS7003;55690;51.566;19.198;2022-08-19T14:04:04;14;12;9
68713;PMS7003;55690;51.566;19.198;2022-08-19T14:08:10;8;8;6
68713;PMS7003;55690;51.566;19.198;2022-08-19T14:12:19;14;8;7
68713;PMS7003;55690;51.566;19.198;2022-08-19T14:16:22;11;11;9
68713;PMS7003;55690;51.566;19.198;2022-08-19T14:20:28;19;11;8
68713;PMS7003;55690;51.566;19.198;2022-08-19T14:24:36;15;11;10
68713;PMS7003;55690;51.566;19.198;2022-08-19T14:28:41;9;9;8
68713;PMS7003;55690;51.566;19.198;2022-08-19T14:32:47;13;11;10
68713;PMS7003;55690;51.566;19.198;2022-08-19T14:36:53;11;11;8
68713;PMS7003;55690;51.566;19.198;2022-08-19T14:45:14;16;14;13
68713;PMS7003;55690;51.566;19.198;2022-08-19T14:49:16;12;12;10
68713;PMS7003;55690;51.566;19.198;2022-08-19T14:53:19;13;13;10
68713;PMS7003;55690;51.566;19.198;2022-08-19T15:01:30;21;14;13
68713;PMS7003;55690;51.566;19.198;2022-08-19T15:05:36;12;12;9
68713;PMS7003;55690;51.566;19.198;2022-08-19T15:09:42;15;14;10
68713;PMS7003;55690;51.566;19.198;2022-08-19T15:13:50;20;12;10
68713;PMS7003;55690;51.566;19.198;2022-08-19T15:17:55;10;10;9
68713;PMS7003;55690;51.566;19.198;2022-08-19T15:26:07;16;16;12
68713;PMS7003;55690;51.566;19.198;2022-08-19T15:38:25;23;16;10
68713;PMS7003;55690;51.566;19.198;2022-08-19T15:42:36;17;17;15
68713;PMS7003;55690;51.566;19.198;2022-08-19T15:50:46;19;14;11
68713;PMS7003;55690;51.566;19.198;2022-08-19T15:54:50;16;15;12
68713;PMS7003;55690;51.566;19.198;2022-08-19T15:58:56;15;11;10
68713;PMS7003;55690;51.566;19.198;2022-08-19T16:07:31;16;15;13
68713;PMS7003;55690;51.566;19.198;2022-08-19T16:11:33;26;17;13
68713;PMS7003;55690;51.566;19.198;2022-08-19T16:27:56;20;14;12
68713;PMS7003;55690;51.566;19.198;2022-08-19T16:31:59;16;14;13
68713;PMS7003;55690;51.566;19.198;2022-08-19T16:36:01;22;21;16
68713;PMS7003;55690;51.566;19.198;2022-08-19T16:40:04;14;14;12
68713;PMS7003;55690;51.566;19.198;2022-08-19T16:48:20;13;13;11
68713;PMS7003;55690;51.566;19.198;2022-08-19T16:52:27;16;15;13
68713;PMS7003;55690;51.566;19.198;2022-08-19T16:56:29;16;16;14
68713;PMS7003;55690;51.566;19.198;2022-08-19T17:00:32;19;19;15
68713;PMS7003;55690;51.566;19.198;2022-08-19T17:12:47;11;11;10
68713;PMS7003;55690;51.566;19.198;2022-08-19T17:16:53;25;19;14
68713;PMS7003;55690;51.566;19.198;2022-08-19T17:21:00;16;14;12
68713;PMS7003;55690;51.566;19.198;2022-08-19T17:25:06;17;16;13
68713;PMS7003;55690;51.566;19.198;2022-08-19T17:33:19;25;19;14
68713;PMS7003;55690;51.566;19.198;2022-08-19T17:37:28;21;21;14
68713;PMS7003;55690;51.566;19.198;2022-08-19T17:41:30;22;20;16
68713;PMS7003;55690;51.566;19.198;2022-08-19T17:45:37;20;20;17
68713;PMS7003;55690;51.566;19.198;2022-08-19T17:49:46;19;19;16
68713;PMS7003;55690;51.566;19.198;2022-08-19T17:57:59;17;17;16
68713;PMS7003;55690;51.566;19.198;2022-08-19T18:02:05;22;20;17
68713;PMS7003;55690;51.566;19.198;2022-08-19T18:06:09;21;19;16
68713;PMS7003;55690;51.566;19.198;2022-08-19T18:14:20;25;22;18
68713;PMS7003;55690;51.566;19.198;2022-08-19T18:18:28;22;22;17
68713;PMS7003;55690;51.566;19.198;2022-08-19T18:22:33;18;18;12
68713;PMS7003;55690;51.566;19.198;2022-08-19T18:30:44;31;29;20
68713;PMS7003;55690;51.566;19.198;2022-08-19T18:34:50;21;19;17
68713;PMS7003;55690;51.566;19.198;2022-08-19T18:38:57;22;22;18
68713;PMS7003;55690;51.566;19.198;2022-08-19T18:43:11;29;24;19
68713;PMS7003;55690;51.566;19.198;2022-08-19T18:47:24;36;29;21
68713;PMS7003;55690;51.566;19.198;2022-08-19T18:55:42;32;22;16
68713;PMS7003;55690;51.566;19.198;2022-08-19T19:03:58;32;21;14
68713;PMS7003;55690;51.566;19.198;2022-08-19T19:08:01;20;16;15
68713;PMS7003;55690;51.566;19.198;2022-08-19T19:20:19;27;27;20
68713;PMS7003;55690;51.566;19.198;2022-08-19T19:28:29;20;15;13
68713;PMS7003;55690;51.566;19.198;2022-08-19T19:40:44;16;16;12
68713;PMS7003;55690;51.566;19.198;2022-08-19T19:48:54;21;18;16
68713;PMS7003;55690;51.566;19.198;2022-08-19T19:52:57;17;17;14
68713;PMS7003;55690;51.566;19.198;2022-08-19T20:01:07;16;16;12
68713;PMS7003;55690;51.566;19.198;2022-08-19T20:05:12;15;15;11
68713;PMS7003;55690;51.566;19.198;2022-08-19T20:09:18;20;19;12
68713;PMS7003;55690;51.566;19.198;2022-08-19T20:13:21;21;18;12
68713;PMS7003;55690;51.566;19.198;2022-08-19T20:17:27;22;17;11
68713;PMS7003;55690;51.566;19.198;2022-08-19T20:21:37;21;14;13
68713;PMS7003;55690;51.566;19.198;2022-08-19T20:29:46;28;16;13
68713;PMS7003;55690;51.566;19.198;2022-08-19T20:33:51;24;16;13
68713;PMS7003;55690;51.566;19.198;2022-08-19T20:37:58;16;14;13
68713;PMS7003;55690;51.566;19.198;2022-08-19T20:42:04;16;13;11
68713;PMS7003;55690;51.566;19.198;2022-08-19T20:46:10;13;13;12
68713;PMS7003;55690;51.566;19.198;2022-08-19T20:50:17;22;13;11
68713;PMS7003;55690;51.566;19.198;2022-08-19T20:58:30;17;12;11
68713;PMS7003;55690;51.566;19.198;2022-08-19T21:02:35;13;12;10
68713;PMS7003;55690;51.566;19.198;2022-08-19T21:10:51;12;12;9
68713;PMS7003;55690;51.566;19.198;2022-08-19T21:19:00;23;14;12
68713;PMS7003;55690;51.566;19.198;2022-08-19T21:23:07;11;11;10
68713;PMS7003;55690;51.566;19.198;2022-08-19T21:27:12;12;12;10
68713;PMS7003;55690;51.566;19.198;2022-08-19T21:31:19;8;8;7
68713;PMS7003;55690;51.566;19.198;2022-08-19T21:35:25;10;10;8
68713;PMS7003;55690;51.566;19.198;2022-08-19T21:39:31;12;8;7
68713;PMS7003;55690;51.566;19.198;2022-08-19T21:43:37;10;10;9
68713;PMS7003;55690;51.566;19.198;2022-08-19T21:47:43;15;13;10
68713;PMS7003;55690;51.566;19.198;2022-08-19T21:51:49;18;13;10
68713;PMS7003;55690;51.566;19.198;2022-08-19T21:55:56;9;9;8
68713;PMS7003;55690;51.566;19.198;2022-08-19T22:00:04;18;15;10
68713;PMS7003;55690;51.566;19.198;2022-08-19T22:04:10;13;10;9
68713;PMS7003;55690;51.566;19.198;2022-08-19T22:08:14;13;13;10
68713;PMS7003;55690;51.566;19.198;2022-08-19T22:12:24;13;13;10
68713;PMS7003;55690;51.566;19.198;2022-08-19T22:16:28;13;13;11
68713;PMS7003;55690;51.566;19.198;2022-08-19T22:20:32;14;13;9
68713;PMS7003;55690;51.566;19.198;2022-08-19T22:24:39;8;8;7
68713;PMS7003;55690;51.566;19.198;2022-08-19T22:28:45;15;13;10
68713;PMS7003;55690;51.566;19.198;2022-08-19T22:32:52;12;12;9
68713;PMS7003;55690;51.566;19.198;2022-08-19T22:37:00;13;13;9
68713;PMS7003;55690;51.566;19.198;2022-08-19T22:41:04;13;11;9
68713;PMS7003;55690;51.566;19.198;2022-08-19T22:45:11;21;13;10
68713;PMS7003;55690;51.566;19.198;2022-08-19T22:49:15;20;13;9
68713;PMS7003;55690;51.566;19.198;2022-08-19T22:53:22;15;15;13
68713;PMS7003;55690;51.566;19.198;2022-08-19T22:57:28;16;11;10
68713;PMS7003;55690;51.566;19.198;2022-08-19T23:01:35;12;12;11
68713;PMS7003;55690;51.566;19.198;2022-08-19T23:05:41;10;10;9
68713;PMS7003;55690;51.566;19.198;2022-08-19T23:09:47;16;16;13
68713;PMS7003;55690;51.566;19.198;2022-08-19T23:13:53;26;17;15
68713;PMS7003;55690;51.566;19.198;2022-08-19T23:18:00;21;13;11
68713;PMS7003;55690;51.566;19.198;2022-08-19T23:22:05;11;11;9
68713;PMS7003;55690;51.566;19.198;2022-08-19T23:26:11;18;15;11
68713;PMS7003;55690;51.566;19.198;2022-08-19T23:30:18;24;13;11
68713;PMS7003;55690;51.566;19.198;2022-08-19T23:34:27;20;13;11
68713;PMS7003;55690;51.566;19.198;2022-08-19T23:38:30;8;8;7
68713;PMS7003;55690;51.566;19.198;2022-08-19T23:42:39;14;13;11
68713;PMS7003;55690;51.566;19.198;2022-08-19T23:46:42;11;11;8
68713;PMS7003;55690;51.566;19.198;2022-08-19T23:50:48;11;9;7
68713;PMS7003;55690;51.566;19.198;2022-08-19T23:54:58;10;9;8
